There are multiple Weather-warnings   Click here for more information


Meteo18 Weather Cam more information Meteo18 Weather Cam


warning for Thunderstorms more information blitzortung!


Rain radar more information rain snow radar


Visit our other weather sites:

Template documentation
and downloads

And another site



Weather Underground History page Text

Daily Summary for March 12, 2017 Units:  Both    English   Metric
« Previous Day
Next Day »
Daily Weekly Monthly Yearly Custom
  High: Low: Average:
Temperature: 62.6 °F /  17.0 °C 43.2 °F /  6.2 °C 52.3 °F /  11.3 °C
Dew Point: 50.4 °F /  10.2 °C 38.1 °F /  3.4 °C 44.2 °F /  6.8 °C
Humidity: 92 % 58 % 75 %
Wind Speed: 13 mph /  20.9 km/h - 3 mph /  4.8 km/h
Wind Gust: 14 mph /  22.5 km/h - -
Wind:- - WSW
Pressure: 30.1 in /  1017.8 hPa 29.9 in /  1012.4 hPa -
Precipitation: 0 in /  0.0 mm    
Historical Graphs
 
 
Tabular Data for March 12, 2017
Time Temperature Dew Point Pressure Wind Wind Speed Wind Gust Humidity Rainfall Rate (Hourly)
00:02 50.4 °F /  10.2 °C 38.3 °F /  3.5 °C 30 in /  1014.8 hPa North 2 mph /  3.2 km/h 2 mph /  3.2 km/h 63 % 0 in /  0.0 mm
00:07 51.1 °F /  10.6 °C 38.1 °F /  3.4 °C 30 in /  1014.8 hPa North 1 mph /  1.6 km/h 2 mph /  3.2 km/h 61 % 0 in /  0.0 mm
00:12 50.7 °F /  10.4 °C 38.7 °F /  3.7 °C 30 in /  1014.8 hPa NNW 1 mph /  1.6 km/h 2 mph /  3.2 km/h 63 % 0 in /  0.0 mm
00:17 50.7 °F /  10.4 °C 39 °F /  3.9 °C 30 in /  1014.8 hPa NNE 2 mph /  3.2 km/h 2 mph /  3.2 km/h 64 % 0 in /  0.0 mm
00:22 50.7 °F /  10.4 °C 39 °F /  3.9 °C 30 in /  1014.8 hPa North 2 mph /  3.2 km/h 2 mph /  3.2 km/h 64 % 0 in /  0.0 mm
00:32 50.5 °F /  10.3 °C 39.6 °F /  4.2 °C 30 in /  1014.8 hPa NNW 2 mph /  3.2 km/h 3 mph /  4.8 km/h 66 % 0 in /  0.0 mm
00:37 51.1 °F /  10.6 °C 39.4 °F /  4.1 °C 30 in /  1014.4 hPa Calm   2 mph /  3.2 km/h 64 % 0 in /  0.0 mm
00:42 51.1 °F /  10.6 °C 39.4 °F /  4.1 °C 30 in /  1014.4 hPa West 1 mph /  1.6 km/h 2 mph /  3.2 km/h 64 % 0 in /  0.0 mm
00:52 50.4 °F /  10.2 °C 39.4 °F /  4.1 °C 30 in /  1014.4 hPa West 1 mph /  1.6 km/h 2 mph /  3.2 km/h 66 % 0 in /  0.0 mm
00:57 50.5 °F /  10.3 °C 39.6 °F /  4.2 °C 30 in /  1014.8 hPa WSW 1 mph /  1.6 km/h 3 mph /  4.8 km/h 66 % 0 in /  0.0 mm
01:02 50.7 °F /  10.4 °C 39.4 °F /  4.1 °C 30 in /  1014.8 hPa Calm   3 mph /  4.8 km/h 65 % 0 in /  0.0 mm
01:07 51.1 °F /  10.6 °C 39.4 °F /  4.1 °C 30 in /  1014.4 hPa Calm   3 mph /  4.8 km/h 64 % 0 in /  0.0 mm
01:12 50.9 °F /  10.5 °C 39.6 °F /  4.2 °C 30 in /  1014.4 hPa Calm   1 mph /  1.6 km/h 65 % 0 in /  0.0 mm
01:17 51.1 °F /  10.6 °C 39.4 °F /  4.1 °C 30 in /  1014.4 hPa NE 1 mph /  1.6 km/h 1 mph /  1.6 km/h 64 % 0 in /  0.0 mm
01:22 51.1 °F /  10.6 °C 39.4 °F /  4.1 °C 30 in /  1014.4 hPa Calm   2 mph /  3.2 km/h 64 % 0 in /  0.0 mm
01:32 50.5 °F /  10.3 °C 39.2 °F /  4.0 °C 30 in /  1014.4 hPa Calm   2 mph /  3.2 km/h 65 % 0 in /  0.0 mm
01:37 50.7 °F /  10.4 °C 39.4 °F /  4.1 °C 30 in /  1014.4 hPa NE 1 mph /  1.6 km/h 2 mph /  3.2 km/h 65 % 0 in /  0.0 mm
01:42 51.1 °F /  10.6 °C 39.4 °F /  4.1 °C 30 in /  1014.4 hPa Calm   2 mph /  3.2 km/h 64 % 0 in /  0.0 mm
01:52 51.4 °F /  10.8 °C 39.7 °F /  4.3 °C 30 in /  1014.4 hPa WNW 1 mph /  1.6 km/h 1 mph /  1.6 km/h 64 % 0 in /  0.0 mm
01:57 50.5 °F /  10.3 °C 38.8 °F /  3.8 °C 30 in /  1014.4 hPa WNW 1 mph /  1.6 km/h 2 mph /  3.2 km/h 64 % 0 in /  0.0 mm
02:02 49.5 °F /  9.7 °C 39.4 °F /  4.1 °C 30 in /  1014.4 hPa West 1 mph /  1.6 km/h 2 mph /  3.2 km/h 68 % 0 in /  0.0 mm
02:07 49.5 °F /  9.7 °C 39.4 °F /  4.1 °C 30 in /  1014.4 hPa WNW 1 mph /  1.6 km/h 2 mph /  3.2 km/h 68 % 0 in /  0.0 mm
02:12 49.3 °F /  9.6 °C 39.2 °F /  4.0 °C 30 in /  1014.4 hPa West 1 mph /  1.6 km/h 2 mph /  3.2 km/h 68 % 0 in /  0.0 mm
02:17 49.3 °F /  9.6 °C 39.2 °F /  4.0 °C 29.9 in /  1014.1 hPa West 1 mph /  1.6 km/h 2 mph /  3.2 km/h 68 % 0 in /  0.0 mm
02:22 49.6 °F /  9.8 °C 39.2 °F /  4.0 °C 29.9 in /  1014.1 hPa West 2 mph /  3.2 km/h 2 mph /  3.2 km/h 67 % 0 in /  0.0 mm
02:27 50.4 °F /  10.2 °C 39.4 °F /  4.1 °C 29.9 in /  1014.1 hPa WSW 1 mph /  1.6 km/h 2 mph /  3.2 km/h 66 % 0 in /  0.0 mm
02:32 50.9 °F /  10.5 °C 39.2 °F /  4.0 °C 29.9 in /  1014.1 hPa WSW 1 mph /  1.6 km/h 2 mph /  3.2 km/h 64 % 0 in /  0.0 mm
02:42 52 °F /  11.1 °C 39 °F /  3.9 °C 29.9 in /  1013.8 hPa SW 1 mph /  1.6 km/h 2 mph /  3.2 km/h 61 % 0 in /  0.0 mm
02:47 51.6 °F /  10.9 °C 39 °F /  3.9 °C 29.9 in /  1013.8 hPa Calm   2 mph /  3.2 km/h 62 % 0 in /  0.0 mm
02:52 50.7 °F /  10.4 °C 39.4 °F /  4.1 °C 29.9 in /  1013.8 hPa Calm   2 mph /  3.2 km/h 65 % 0 in /  0.0 mm
02:57 50.5 °F /  10.3 °C 39.2 °F /  4.0 °C 29.9 in /  1013.8 hPa Calm   1 mph /  1.6 km/h 65 % 0 in /  0.0 mm
03:02 50.7 °F /  10.4 °C 39.4 °F /  4.1 °C 29.9 in /  1013.8 hPa Calm   1 mph /  1.6 km/h 65 % 0 in /  0.0 mm
03:07 50.2 °F /  10.1 °C 39.6 °F /  4.2 °C 29.9 in /  1013.8 hPa Calm   1 mph /  1.6 km/h 67 % 0 in /  0.0 mm
03:12 49.5 °F /  9.7 °C 39.4 °F /  4.1 °C 29.9 in /  1013.8 hPa WNW 1 mph /  1.6 km/h 1 mph /  1.6 km/h 68 % 0 in /  0.0 mm
03:17 49.6 °F /  9.8 °C 39.2 °F /  4.0 °C 29.9 in /  1013.8 hPa West 1 mph /  1.6 km/h 1 mph /  1.6 km/h 67 % 0 in /  0.0 mm
03:22 50 °F /  10.0 °C 39 °F /  3.9 °C 29.9 in /  1013.4 hPa West 1 mph /  1.6 km/h 1 mph /  1.6 km/h 66 % 0 in /  0.0 mm
03:32 49.6 °F /  9.8 °C 39.2 °F /  4.0 °C 29.9 in /  1013.4 hPa Calm   1 mph /  1.6 km/h 67 % 0 in /  0.0 mm
03:37 49.8 °F /  9.9 °C 38.8 °F /  3.8 °C 29.9 in /  1013.4 hPa Calm   1 mph /  1.6 km/h 66 % 0 in /  0.0 mm
03:42 49.8 °F /  9.9 °C 38.8 °F /  3.8 °C 29.9 in /  1013.4 hPa Calm   1 mph /  1.6 km/h 66 % 0 in /  0.0 mm
03:47 50 °F /  10.0 °C 39 °F /  3.9 °C 29.9 in /  1013.4 hPa Calm   1 mph /  1.6 km/h 66 % 0 in /  0.0 mm
03:52 50 °F /  10.0 °C 39 °F /  3.9 °C 29.9 in /  1013.1 hPa Calm   1 mph /  1.6 km/h 66 % 0 in /  0.0 mm
03:57 50.2 °F /  10.1 °C 39.2 °F /  4.0 °C 29.9 in /  1013.1 hPa Calm   1 mph /  1.6 km/h 66 % 0 in /  0.0 mm
04:02 50.4 °F /  10.2 °C 39 °F /  3.9 °C 29.9 in /  1013.1 hPa West 1 mph /  1.6 km/h 1 mph /  1.6 km/h 65 % 0 in /  0.0 mm
04:12 49.8 °F /  9.9 °C 38.8 °F /  3.8 °C 29.9 in /  1013.1 hPa WNW 1 mph /  1.6 km/h 1 mph /  1.6 km/h 66 % 0 in /  0.0 mm
04:17 49.6 °F /  9.8 °C 39.2 °F /  4.0 °C 29.9 in /  1013.1 hPa Calm   1 mph /  1.6 km/h 67 % 0 in /  0.0 mm
04:22 48.9 °F /  9.4 °C 38.8 °F /  3.8 °C 29.9 in /  1013.1 hPa Calm   1 mph /  1.6 km/h 68 % 0 in /  0.0 mm
04:32 48.7 °F /  9.3 °C 39 °F /  3.9 °C 29.9 in /  1013.1 hPa Calm     69 % 0 in /  0.0 mm
04:37 48.7 °F /  9.3 °C 39.4 °F /  4.1 °C 29.9 in /  1012.8 hPa Calm     70 % 0 in /  0.0 mm
04:42 48.4 °F /  9.1 °C 39.4 °F /  4.1 °C 29.9 in /  1012.8 hPa WNW 1 mph /  1.6 km/h 1 mph /  1.6 km/h 71 % 0 in /  0.0 mm
04:52 47.8 °F /  8.8 °C 39.6 °F /  4.2 °C 29.9 in /  1012.8 hPa WNW 1 mph /  1.6 km/h 1 mph /  1.6 km/h 73 % 0 in /  0.0 mm
05:02 47.5 °F /  8.6 °C 39.6 °F /  4.2 °C 29.9 in /  1012.8 hPa Calm   2 mph /  3.2 km/h 74 % 0 in /  0.0 mm
05:12 47.5 °F /  8.6 °C 39.6 °F /  4.2 °C 29.9 in /  1012.8 hPa Calm   2 mph /  3.2 km/h 74 % 0 in /  0 mm
05:17 46.9 °F /  8.3 °C 39.4 °F /  4.1 °C 29.9 in /  1012.8 hPa Calm   1 mph /  1.6 km/h 75 % 0 in /  0.0 mm
05:22 46.2 °F /  7.9 °C 39.4 °F /  4.1 °C 29.9 in /  1012.8 hPa Calm   1 mph /  1.6 km/h 77 % 0 in /  0.0 mm
05:32 45.9 °F /  7.7 °C 39.7 °F /  4.3 °C 29.9 in /  1012.8 hPa Calm     79 % 0 in /  0.0 mm
05:37 45.7 °F /  7.6 °C 39.9 °F /  4.4 °C 29.9 in /  1012.8 hPa Calm     80 % 0 in /  0.0 mm
05:42 45.5 °F /  7.5 °C 40.1 °F /  4.5 °C 29.9 in /  1012.8 hPa Calm     81 % 0 in /  0.0 mm
05:47 45.7 °F /  7.6 °C 39.9 °F /  4.4 °C 29.9 in /  1013.1 hPa Calm     80 % 0 in /  0.0 mm
05:52 45.3 °F /  7.4 °C 39.9 °F /  4.4 °C 29.9 in /  1012.8 hPa WNW 1 mph /  1.6 km/h   81 % 0 in /  0.0 mm
06:02 45.3 °F /  7.4 °C 39.6 °F /  4.2 °C 29.9 in /  1012.8 hPa Calm   2 mph /  3.2 km/h 80 % 0 in /  0.0 mm
06:12 45.5 °F /  7.5 °C 39.4 °F /  4.1 °C 29.9 in /  1012.8 hPa Calm   2 mph /  3.2 km/h 79 % 0 in /  0.0 mm
06:17 45.9 °F /  7.7 °C 39.4 °F /  4.1 °C 29.9 in /  1012.8 hPa Calm   1 mph /  1.6 km/h 78 % 0 in /  0.0 mm
06:22 46.2 °F /  7.9 °C 39.7 °F /  4.3 °C 29.9 in /  1012.8 hPa ENE 1 mph /  1.6 km/h 1 mph /  1.6 km/h 78 % 0 in /  0.0 mm
06:32 45.3 °F /  7.4 °C 39.6 °F /  4.2 °C 29.9 in /  1013.1 hPa Calm   1 mph /  1.6 km/h 80 % 0 in /  0.0 mm
06:37 44.4 °F /  6.9 °C 39.6 °F /  4.2 °C 29.9 in /  1012.8 hPa Calm   1 mph /  1.6 km/h 83 % 0 in /  0.0 mm
06:42 44.1 °F /  6.7 °C 39.6 °F /  4.2 °C 29.9 in /  1012.8 hPa Calm   1 mph /  1.6 km/h 84 % 0 in /  0.0 mm
06:47 43.9 °F /  6.6 °C 39.7 °F /  4.3 °C 29.9 in /  1012.8 hPa Calm   1 mph /  1.6 km/h 85 % 0 in /  0.0 mm
06:52 43.9 °F /  6.6 °C 39.7 °F /  4.3 °C 29.9 in /  1012.8 hPa Calm   1 mph /  1.6 km/h 85 % 0 in /  0.0 mm
07:02 43.9 °F /  6.6 °C 39.7 °F /  4.3 °C 29.9 in /  1012.8 hPa Calm   1 mph /  1.6 km/h 85 % 0 in /  0.0 mm
07:07 43.7 °F /  6.5 °C 39.7 °F /  4.3 °C 29.9 in /  1013.1 hPa Calm     86 % 0 in /  0.0 mm
07:12 43.5 °F /  6.4 °C 39.6 °F /  4.2 °C 29.9 in /  1013.1 hPa Calm     86 % 0 in /  0.0 mm
07:17 43.3 °F /  6.3 °C 39.4 °F /  4.1 °C 29.9 in /  1013.1 hPa Calm   1 mph /  1.6 km/h 86 % 0 in /  0.0 mm
07:22 43.2 °F /  6.2 °C 39.6 °F /  4.2 °C 29.9 in /  1013.1 hPa Calm   1 mph /  1.6 km/h 87 % 0 in /  0.0 mm
07:27 43.2 °F /  6.2 °C 39.9 °F /  4.4 °C 29.9 in /  1013.1 hPa SSW 1 mph /  1.6 km/h 2 mph /  3.2 km/h 88 % 0 in /  0.0 mm
07:32 43.2 °F /  6.2 °C 39.9 °F /  4.4 °C 29.9 in /  1013.1 hPa SSW 4 mph /  6.4 km/h 4 mph /  6.4 km/h 88 % 0 in /  0.0 mm
07:42 44.1 °F /  6.7 °C 40.8 °F /  4.9 °C 29.9 in /  1013.4 hPa SSW 4 mph /  6.4 km/h 5 mph /  8.0 km/h 88 % 0 in /  0.0 mm
07:47 44.4 °F /  6.9 °C 40.8 °F /  4.9 °C 29.9 in /  1013.4 hPa SSW 5 mph /  8.0 km/h 9 mph /  14.5 km/h 87 % 0 in /  0.0 mm
07:57 45.7 °F /  7.6 °C 41.4 °F /  5.2 °C 29.9 in /  1013.4 hPa SW 3 mph /  4.8 km/h 9 mph /  14.5 km/h 85 % 0 in /  0.0 mm
08:02 45.9 °F /  7.7 °C 41.5 °F /  5.3 °C 29.9 in /  1013.4 hPa SSW 2 mph /  3.2 km/h 9 mph /  14.5 km/h 85 % 0 in /  0.0 mm
08:12 46.6 °F /  8.1 °C 42.6 °F /  5.9 °C 29.9 in /  1013.8 hPa SW 9 mph /  14.5 km/h 9 mph /  14.5 km/h 86 % 0 in /  0.0 mm
08:17 46.8 °F /  8.2 °C 43.2 °F /  6.2 °C 29.9 in /  1013.8 hPa SW 5 mph /  8.0 km/h 10 mph /  16.1 km/h 87 % 0 in /  0.0 mm
08:22 46.9 °F /  8.3 °C 43.5 °F /  6.4 °C 29.9 in /  1013.8 hPa WSW 8 mph /  12.9 km/h 10 mph /  16.1 km/h 88 % 0 in /  0.0 mm
08:27 47.1 °F /  8.4 °C 43.7 °F /  6.5 °C 29.9 in /  1013.8 hPa SW 8 mph /  12.9 km/h 10 mph /  16.1 km/h 88 % 0 in /  0.0 mm
08:32 47.5 °F /  8.6 °C 44.4 °F /  6.9 °C 29.9 in /  1013.8 hPa WSW 3 mph /  4.8 km/h 10 mph /  16.1 km/h 89 % 0 in /  0.0 mm
08:37 47.7 °F /  8.7 °C 44.6 °F /  7.0 °C 29.9 in /  1013.8 hPa WSW 3 mph /  4.8 km/h 10 mph /  16.1 km/h 89 % 0 in /  0.0 mm
08:42 48 °F /  8.9 °C 45 °F /  7.2 °C 29.9 in /  1013.8 hPa SSW 3 mph /  4.8 km/h 10 mph /  16.1 km/h 89 % 0 in /  0.0 mm
08:52 48.4 °F /  9.1 °C 45.3 °F /  7.4 °C 29.9 in /  1013.8 hPa West 3 mph /  4.8 km/h 8 mph /  12.9 km/h 89 % 0 in /  0.0 mm
08:57 48.6 °F /  9.2 °C 45.5 °F /  7.5 °C 29.9 in /  1013.8 hPa SW 2 mph /  3.2 km/h 7 mph /  11.3 km/h 89 % 0 in /  0.0 mm
09:02 48.7 °F /  9.3 °C 45.7 °F /  7.6 °C 29.9 in /  1013.8 hPa West 2 mph /  3.2 km/h 7 mph /  11.3 km/h 89 % 0 in /  0.0 mm
09:12 49.1 °F /  9.5 °C 46 °F /  7.8 °C 29.9 in /  1013.8 hPa SW 4 mph /  6.4 km/h 8 mph /  12.9 km/h 89 % 0 in /  0.0 mm
09:22 49.3 °F /  9.6 °C 45.9 °F /  7.7 °C 29.9 in /  1013.8 hPa SSW 5 mph /  8.0 km/h 11 mph /  17.7 km/h 88 % 0 in /  0.0 mm
09:32 48.9 °F /  9.4 °C 45.9 °F /  7.7 °C 29.9 in /  1013.8 hPa WSW 4 mph /  6.4 km/h 9 mph /  14.5 km/h 89 % 0 in /  0.0 mm
09:37 49.1 °F /  9.5 °C 46 °F /  7.8 °C 29.9 in /  1013.8 hPa SW 2 mph /  3.2 km/h 9 mph /  14.5 km/h 89 % 0 in /  0.0 mm
09:42 49.3 °F /  9.6 °C 46.2 °F /  7.9 °C 29.9 in /  1013.8 hPa SW 3 mph /  4.8 km/h 9 mph /  14.5 km/h 89 % 0 in /  0.0 mm
09:52 49.8 °F /  9.9 °C 46.8 °F /  8.2 °C 29.9 in /  1013.8 hPa SW 9 mph /  14.5 km/h 9 mph /  14.5 km/h 89 % 0 in /  0.0 mm
09:57 49.8 °F /  9.9 °C 46.4 °F /  8.0 °C 29.9 in /  1013.8 hPa WSW 6 mph /  9.7 km/h 12 mph /  19.3 km/h 88 % 0 in /  0.0 mm
10:02 50.2 °F /  10.1 °C 47.1 °F /  8.4 °C 29.9 in /  1013.8 hPa West 6 mph /  9.7 km/h 12 mph /  19.3 km/h 89 % 0 in /  0.0 mm
10:07 50.5 °F /  10.3 °C 47.1 °F /  8.4 °C 29.9 in /  1013.8 hPa WSW 4 mph /  6.4 km/h 12 mph /  19.3 km/h 88 % 0 in /  0.0 mm
10:12 51.1 °F /  10.6 °C 47.7 °F /  8.7 °C 29.9 in /  1013.8 hPa SW 13 mph /  20.9 km/h 13 mph /  20.9 km/h 88 % 0 in /  0.0 mm
10:17 50.9 °F /  10.5 °C 47.5 °F /  8.6 °C 29.9 in /  1013.8 hPa WSW 6 mph /  9.7 km/h 12 mph /  19.3 km/h 88 % 0 in /  0.0 mm
10:22 51.1 °F /  10.6 °C 47.7 °F /  8.7 °C 29.9 in /  1013.8 hPa WSW 2 mph /  3.2 km/h 14 mph /  22.5 km/h 88 % 0 in /  0.0 mm
10:32 51.4 °F /  10.8 °C 47.5 °F /  8.6 °C 29.9 in /  1013.8 hPa WSW 10 mph /  16.1 km/h 14 mph /  22.5 km/h 86 % 0 in /  0.0 mm
10:37 52 °F /  11.1 °C 48.2 °F /  9.0 °C 29.9 in /  1013.8 hPa West 7 mph /  11.3 km/h 14 mph /  22.5 km/h 87 % 0 in /  0.0 mm
10:47 52.7 °F /  11.5 °C 48 °F /  8.9 °C 29.9 in /  1013.8 hPa WSW 7 mph /  11.3 km/h 10 mph /  16.1 km/h 84 % 0 in /  0.0 mm
10:52 53.1 °F /  11.7 °C 48.4 °F /  9.1 °C 29.9 in /  1013.8 hPa WNW 4 mph /  6.4 km/h 10 mph /  16.1 km/h 84 % 0 in /  0.0 mm
11:02 53.1 °F /  11.7 °C 47.7 °F /  8.7 °C 29.9 in /  1013.4 hPa West 7 mph /  11.3 km/h 10 mph /  16.1 km/h 82 % 0 in /  0.0 mm
11:12 53.8 °F /  12.1 °C 48 °F /  8.9 °C 29.9 in /  1013.4 hPa West 5 mph /  8.0 km/h 13 mph /  20.9 km/h 81 % 0 in /  0.0 mm
11:17 54 °F /  12.2 °C 48.2 °F /  9.0 °C 29.9 in /  1013.4 hPa West 2 mph /  3.2 km/h 11 mph /  17.7 km/h 81 % 0 in /  0.0 mm
11:22 54.7 °F /  12.6 °C 48.6 °F /  9.2 °C 29.9 in /  1013.4 hPa WNW 3 mph /  4.8 km/h 11 mph /  17.7 km/h 80 % 0 in /  0.0 mm
11:32 55 °F /  12.8 °C 48.6 °F /  9.2 °C 29.9 in /  1013.4 hPa West 7 mph /  11.3 km/h 9 mph /  14.5 km/h 79 % 0 in /  0.0 mm
11:42 55.6 °F /  13.1 °C 47.8 °F /  8.8 °C 29.9 in /  1013.4 hPa West 7 mph /  11.3 km/h 10 mph /  16.1 km/h 75 % 0 in /  0.0 mm
11:47 55.8 °F /  13.2 °C 48 °F /  8.9 °C 29.9 in /  1013.4 hPa West 8 mph /  12.9 km/h 10 mph /  16.1 km/h 75 % 0 in /  0.0 mm
11:52 56.3 °F /  13.5 °C 48.6 °F /  9.2 °C 29.9 in /  1013.4 hPa West 8 mph /  12.9 km/h 11 mph /  17.7 km/h 75 % 0 in /  0.0 mm
12:02 56.7 °F /  13.7 °C 48.4 °F /  9.1 °C 29.9 in /  1013.4 hPa West 4 mph /  6.4 km/h 11 mph /  17.7 km/h 74 % 0 in /  0.0 mm
12:12 57 °F /  13.9 °C 48.7 °F /  9.3 °C 29.9 in /  1013.4 hPa West 5 mph /  8.0 km/h 9 mph /  14.5 km/h 74 % 0 in /  0.0 mm
12:17 57.2 °F /  14.0 °C 48.2 °F /  9.0 °C 29.9 in /  1013.4 hPa West 6 mph /  9.7 km/h 9 mph /  14.5 km/h 72 % 0 in /  0.0 mm
12:22 57.2 °F /  14.0 °C 47.8 °F /  8.8 °C 29.9 in /  1013.4 hPa SSW 3 mph /  4.8 km/h 10 mph /  16.1 km/h 71 % 0 in /  0.0 mm
12:27 57.7 °F /  14.3 °C 48.4 °F /  9.1 °C 29.9 in /  1013.4 hPa WSW 5 mph /  8.0 km/h 10 mph /  16.1 km/h 71 % 0 in /  0.0 mm
12:32 57.9 °F /  14.4 °C 48.9 °F /  9.4 °C 29.9 in /  1013.4 hPa West 6 mph /  9.7 km/h 9 mph /  14.5 km/h 72 % 0 in /  0.0 mm
12:42 58.3 °F /  14.6 °C 48.2 °F /  9.0 °C 29.9 in /  1013.1 hPa WNW 4 mph /  6.4 km/h 9 mph /  14.5 km/h 69 % 0 in /  0.0 mm
12:52 58.5 °F /  14.7 °C 48 °F /  8.9 °C 29.9 in /  1013.1 hPa WSW 3 mph /  4.8 km/h 8 mph /  12.9 km/h 68 % 0 in /  0.0 mm
12:57 58.6 °F /  14.8 °C 48.2 °F /  9.0 °C 29.9 in /  1013.1 hPa WSW 2 mph /  3.2 km/h 8 mph /  12.9 km/h 68 % 0 in /  0.0 mm
13:02 58.8 °F /  14.9 °C 50.2 °F /  10.1 °C 29.9 in /  1013.1 hPa SSW 8 mph /  12.9 km/h 8 mph /  12.9 km/h 73 % 0 in /  0.0 mm
13:07 58.6 °F /  14.8 °C 49.6 °F /  9.8 °C 29.9 in /  1013.1 hPa SSW 5 mph /  8.0 km/h 10 mph /  16.1 km/h 72 % 0 in /  0.0 mm
13:12 58.6 °F /  14.8 °C 50.4 °F /  10.2 °C 29.9 in /  1013.1 hPa SSW 8 mph /  12.9 km/h 11 mph /  17.7 km/h 74 % 0 in /  0.0 mm
13:17 58.8 °F /  14.9 °C 50.2 °F /  10.1 °C 29.9 in /  1013.1 hPa South 6 mph /  9.7 km/h 11 mph /  17.7 km/h 73 % 0 in /  0.0 mm
13:22 59.4 °F /  15.2 °C 50.4 °F /  10.2 °C 29.9 in /  1013.1 hPa West 5 mph /  8.0 km/h 12 mph /  19.3 km/h 72 % 0 in /  0.0 mm
13:27 59.9 °F /  15.5 °C 50.2 °F /  10.1 °C 29.9 in /  1013.1 hPa WSW 4 mph /  6.4 km/h 12 mph /  19.3 km/h 70 % 0 in /  0.0 mm
13:32 60.1 °F /  15.6 °C 49.8 °F /  9.9 °C 29.9 in /  1013.1 hPa West 6 mph /  9.7 km/h 12 mph /  19.3 km/h 69 % 0 in /  0.0 mm
13:42 60.3 °F /  15.7 °C 49.3 °F /  9.6 °C 29.9 in /  1012.8 hPa SSW 5 mph /  8.0 km/h 10 mph /  16.1 km/h 67 % 0 in /  0.0 mm
13:47 60.3 °F /  15.7 °C 49.3 °F /  9.6 °C 29.9 in /  1012.8 hPa South 4 mph /  6.4 km/h 11 mph /  17.7 km/h 67 % 0 in /  0.0 mm
13:52 60.6 °F /  15.9 °C 50 °F /  10.0 °C 29.9 in /  1012.8 hPa SSW 6 mph /  9.7 km/h 11 mph /  17.7 km/h 68 % 0 in /  0.0 mm
13:57 60.4 °F /  15.8 °C 49.5 °F /  9.7 °C 29.9 in /  1012.8 hPa SW 3 mph /  4.8 km/h 10 mph /  16.1 km/h 67 % 0 in /  0.0 mm
14:02 61 °F /  16.1 °C 49.5 °F /  9.7 °C 29.9 in /  1012.8 hPa South 4 mph /  6.4 km/h 11 mph /  17.7 km/h 66 % 0 in /  0.0 mm
14:07 61 °F /  16.1 °C 50 °F /  10.0 °C 29.9 in /  1012.8 hPa SW 10 mph /  16.1 km/h 11 mph /  17.7 km/h 67 % 0 in /  0.0 mm
14:12 61 °F /  16.1 °C 49.5 °F /  9.7 °C 29.9 in /  1012.8 hPa SSW 9 mph /  14.5 km/h 12 mph /  19.3 km/h 66 % 0 in /  0.0 mm
14:17 60.6 °F /  15.9 °C 49.6 °F /  9.8 °C 29.9 in /  1012.8 hPa SSW 10 mph /  16.1 km/h 13 mph /  20.9 km/h 67 % 0 in /  0.0 mm
14:22 60.6 °F /  15.9 °C 49.3 °F /  9.6 °C 29.9 in /  1012.8 hPa SW 9 mph /  14.5 km/h 13 mph /  20.9 km/h 66 % 0 in /  0.0 mm
14:32 60.6 °F /  15.9 °C 48 °F /  8.9 °C 29.9 in /  1012.8 hPa West 5 mph /  8.0 km/h 11 mph /  17.7 km/h 63 % 0 in /  0.0 mm
14:37 60.6 °F /  15.9 °C 48.7 °F /  9.3 °C 29.9 in /  1012.8 hPa SW 8 mph /  12.9 km/h 11 mph /  17.7 km/h 65 % 0 in /  0.0 mm
14:42 61.2 °F /  16.2 °C 48.4 °F /  9.1 °C 29.9 in /  1012.8 hPa West 4 mph /  6.4 km/h 11 mph /  17.7 km/h 63 % 0 in /  0.0 mm
14:52 61.3 °F /  16.3 °C 48.6 °F /  9.2 °C 29.9 in /  1012.8 hPa SW 5 mph /  8.0 km/h 11 mph /  17.7 km/h 63 % 0 in /  0.0 mm
14:57 61.5 °F /  16.4 °C 48.7 °F /  9.3 °C 29.9 in /  1012.8 hPa SW 8 mph /  12.9 km/h 9 mph /  14.5 km/h 63 % 0 in /  0.0 mm
15:02 61.5 °F /  16.4 °C 48.4 °F /  9.1 °C 29.9 in /  1012.8 hPa SW 10 mph /  16.1 km/h 10 mph /  16.1 km/h 62 % 0 in /  0.0 mm
15:07 61.3 °F /  16.3 °C 48.2 °F /  9.0 °C 29.9 in /  1012.8 hPa WSW 7 mph /  11.3 km/h 11 mph /  17.7 km/h 62 % 0 in /  0.0 mm
15:12 61.5 °F /  16.4 °C 48.7 °F /  9.3 °C 29.9 in /  1012.8 hPa West 2 mph /  3.2 km/h 11 mph /  17.7 km/h 63 % 0 in /  0.0 mm
15:17 61.7 °F /  16.5 °C 48.9 °F /  9.4 °C 29.9 in /  1012.8 hPa SSW 5 mph /  8.0 km/h 11 mph /  17.7 km/h 63 % 0 in /  0.0 mm
15:22 62.2 °F /  16.8 °C 48.2 °F /  9.0 °C 29.9 in /  1012.8 hPa West 6 mph /  9.7 km/h 10 mph /  16.1 km/h 60 % 0 in /  0.0 mm
15:32 62.1 °F /  16.7 °C 48.4 °F /  9.1 °C 29.9 in /  1012.4 hPa SSE 2 mph /  3.2 km/h 10 mph /  16.1 km/h 61 % 0 in /  0.0 mm
15:37 62.2 °F /  16.8 °C 48.6 °F /  9.2 °C 29.9 in /  1012.4 hPa South 7 mph /  11.3 km/h 10 mph /  16.1 km/h 61 % 0 in /  0.0 mm
15:42 62.1 °F /  16.7 °C 48 °F /  8.9 °C 29.9 in /  1012.4 hPa SW 6 mph /  9.7 km/h 11 mph /  17.7 km/h 60 % 0 in /  0.0 mm
15:47 62.2 °F /  16.8 °C 49.1 °F /  9.5 °C 29.9 in /  1012.8 hPa SW 2 mph /  3.2 km/h 11 mph /  17.7 km/h 62 % 0 in /  0.0 mm
15:52 62.6 °F /  17.0 °C 48.9 °F /  9.4 °C 29.9 in /  1012.8 hPa SSW 1 mph /  1.6 km/h 11 mph /  17.7 km/h 61 % 0 in /  0.0 mm
18:37 58.8 °F /  14.9 °C 44.1 °F /  6.7 °C 29.9 in /  1013.8 hPa WNW 1 mph /  1.6 km/h 4 mph /  6.4 km/h 58 % 0 in /  0.0 mm
18:42 58.5 °F /  14.7 °C 43.7 °F /  6.5 °C 29.9 in /  1013.8 hPa WNW 1 mph /  1.6 km/h 5 mph /  8.0 km/h 58 % 0 in /  0.0 mm
18:47 58.3 °F /  14.6 °C 44.1 °F /  6.7 °C 29.9 in /  1013.8 hPa NW 1 mph /  1.6 km/h 5 mph /  8.0 km/h 59 % 0 in /  0.0 mm
18:52 57.9 °F /  14.4 °C 43.7 °F /  6.5 °C 29.9 in /  1013.8 hPa Calm   4 mph /  6.4 km/h 59 % 0 in /  0.0 mm
18:57 57.7 °F /  14.3 °C 43.5 °F /  6.4 °C 29.9 in /  1013.8 hPa WNW 1 mph /  1.6 km/h 3 mph /  4.8 km/h 59 % 0 in /  0.0 mm
19:02 57.6 °F /  14.2 °C 43 °F /  6.1 °C 29.9 in /  1014.1 hPa WNW 1 mph /  1.6 km/h 2 mph /  3.2 km/h 58 % 0 in /  0.0 mm
19:12 57 °F /  13.9 °C 42.4 °F /  5.8 °C 29.9 in /  1014.1 hPa Calm   2 mph /  3.2 km/h 58 % 0 in /  0.0 mm
19:22 56.7 °F /  13.7 °C 42.1 °F /  5.6 °C 29.9 in /  1014.1 hPa Calm     58 % 0 in /  0.0 mm
19:27 56.3 °F /  13.5 °C 42.1 °F /  5.6 °C 30 in /  1014.4 hPa Calm     59 % 0 in /  0.0 mm
19:32 56.5 °F /  13.6 °C 41.9 °F /  5.5 °C 30 in /  1014.4 hPa Calm     58 % 0 in /  0.0 mm
19:37 56.3 °F /  13.5 °C 42.6 °F /  5.9 °C 30 in /  1014.4 hPa NNE 1 mph /  1.6 km/h 1 mph /  1.6 km/h 60 % 0 in /  0.0 mm
19:42 55.9 °F /  13.3 °C 41.9 °F /  5.5 °C 30 in /  1014.4 hPa NNW 1 mph /  1.6 km/h 2 mph /  3.2 km/h 59 % 0 in /  0.0 mm
19:52 56.1 °F /  13.4 °C 41.9 °F /  5.5 °C 30 in /  1014.4 hPa WNW 1 mph /  1.6 km/h 2 mph /  3.2 km/h 59 % 0 in /  0.0 mm
19:57 55.8 °F /  13.2 °C 42.1 °F /  5.6 °C 30 in /  1014.4 hPa WNW 2 mph /  3.2 km/h 4 mph /  6.4 km/h 60 % 0 in /  0.0 mm
20:02 55.2 °F /  12.9 °C 42.4 °F /  5.8 °C 30 in /  1014.8 hPa NW 2 mph /  3.2 km/h 4 mph /  6.4 km/h 62 % 0 in /  0.0 mm
20:12 55.6 °F /  13.1 °C 42.8 °F /  6.0 °C 30 in /  1014.8 hPa NW 3 mph /  4.8 km/h 5 mph /  8.0 km/h 62 % 0 in /  0.0 mm
20:17 55.2 °F /  12.9 °C 42.8 °F /  6.0 °C 30 in /  1015.1 hPa NW 1 mph /  1.6 km/h 5 mph /  8.0 km/h 63 % 0 in /  0.0 mm
20:22 54.9 °F /  12.7 °C 43 °F /  6.1 °C 30 in /  1015.1 hPa NNW 1 mph /  1.6 km/h 4 mph /  6.4 km/h 64 % 0 in /  0.0 mm
20:32 54.1 °F /  12.3 °C 42.3 °F /  5.7 °C 30 in /  1015.1 hPa West 3 mph /  4.8 km/h 4 mph /  6.4 km/h 64 % 0 in /  0.0 mm
20:42 53.2 °F /  11.8 °C 44.1 °F /  6.7 °C 30 in /  1015.5 hPa NW 2 mph /  3.2 km/h 5 mph /  8.0 km/h 71 % 0 in /  0.0 mm
20:52 53.2 °F /  11.8 °C 46.9 °F /  8.3 °C 30 in /  1015.5 hPa NW 3 mph /  4.8 km/h 7 mph /  11.3 km/h 79 % 0 in /  0.0 mm
20:57 53.2 °F /  11.8 °C 47.3 °F /  8.5 °C 30 in /  1015.8 hPa NW 3 mph /  4.8 km/h 8 mph /  12.9 km/h 80 % 0 in /  0.0 mm
21:02 53.2 °F /  11.8 °C 47.8 °F /  8.8 °C 30 in /  1015.8 hPa NNW 6 mph /  9.7 km/h 12 mph /  19.3 km/h 82 % 0 in /  0.0 mm
21:07 53.1 °F /  11.7 °C 48.4 °F /  9.1 °C 30 in /  1015.8 hPa WNW 4 mph /  6.4 km/h 12 mph /  19.3 km/h 84 % 0 in /  0.0 mm
21:12 53.1 °F /  11.7 °C 48.7 °F /  9.3 °C 30 in /  1015.8 hPa WNW 8 mph /  12.9 km/h 12 mph /  19.3 km/h 85 % 0 in /  0.0 mm
21:17 52.9 °F /  11.6 °C 48.6 °F /  9.2 °C 30 in /  1015.8 hPa WNW 7 mph /  11.3 km/h 13 mph /  20.9 km/h 85 % 0 in /  0.0 mm
21:22 52.9 °F /  11.6 °C 48.7 °F /  9.3 °C 30 in /  1016.1 hPa NW 6 mph /  9.7 km/h 13 mph /  20.9 km/h 86 % 0 in /  0.0 mm
21:32 52.3 °F /  11.3 °C 48.6 °F /  9.2 °C 30 in /  1016.1 hPa North 4 mph /  6.4 km/h 11 mph /  17.7 km/h 87 % 0 in /  0.0 mm
21:42 52.2 °F /  11.2 °C 48.7 °F /  9.3 °C 30 in /  1016.5 hPa NNW 4 mph /  6.4 km/h 9 mph /  14.5 km/h 88 % 0 in /  0.0 mm
21:52 52 °F /  11.1 °C 48.6 °F /  9.2 °C 30 in /  1016.5 hPa WNW 2 mph /  3.2 km/h 10 mph /  16.1 km/h 88 % 0 in /  0.0 mm
21:57 51.6 °F /  10.9 °C 48.6 °F /  9.2 °C 30 in /  1016.5 hPa NW 2 mph /  3.2 km/h 10 mph /  16.1 km/h 89 % 0 in /  0.0 mm
22:02 51.4 °F /  10.8 °C 48.4 °F /  9.1 °C 30 in /  1016.8 hPa North 4 mph /  6.4 km/h 9 mph /  14.5 km/h 89 % 0 in /  0.0 mm
22:07 51.4 °F /  10.8 °C 48.4 °F /  9.1 °C 30 in /  1016.5 hPa NW 3 mph /  4.8 km/h 9 mph /  14.5 km/h 89 % 0 in /  0.0 mm
22:12 51.4 °F /  10.8 °C 48.4 °F /  9.1 °C 30 in /  1016.8 hPa NNW 4 mph /  6.4 km/h 9 mph /  14.5 km/h 89 % 0 in /  0.0 mm
22:17 51.3 °F /  10.7 °C 48.4 °F /  9.1 °C 30 in /  1016.8 hPa NW 3 mph /  4.8 km/h 10 mph /  16.1 km/h 90 % 0 in /  0.0 mm
22:22 51.3 °F /  10.7 °C 48.4 °F /  9.1 °C 30 in /  1016.8 hPa WNW 3 mph /  4.8 km/h 10 mph /  16.1 km/h 90 % 0 in /  0.0 mm
22:27 51.3 °F /  10.7 °C 48.4 °F /  9.1 °C 30 in /  1016.8 hPa North 3 mph /  4.8 km/h 10 mph /  16.1 km/h 90 % 0 in /  0.0 mm
22:32 51.1 °F /  10.6 °C 48.2 °F /  9.0 °C 30 in /  1016.8 hPa NNW 8 mph /  12.9 km/h 11 mph /  17.7 km/h 90 % 0 in /  0.0 mm
22:37 51.1 °F /  10.6 °C 48.2 °F /  9.0 °C 30 in /  1016.8 hPa NNW 4 mph /  6.4 km/h 11 mph /  17.7 km/h 90 % 0 in /  0.0 mm
22:42 50.9 °F /  10.5 °C 48 °F /  8.9 °C 30 in /  1017.2 hPa NNW 5 mph /  8.0 km/h 11 mph /  17.7 km/h 90 % 0 in /  0.0 mm
22:47 50.9 °F /  10.5 °C 48 °F /  8.9 °C 30 in /  1017.2 hPa NW 3 mph /  4.8 km/h 11 mph /  17.7 km/h 90 % 0 in /  0.0 mm
22:52 50.7 °F /  10.4 °C 47.8 °F /  8.8 °C 30 in /  1017.2 hPa NW 4 mph /  6.4 km/h 11 mph /  17.7 km/h 90 % 0 in /  0.0 mm
22:57 50.7 °F /  10.4 °C 47.8 °F /  8.8 °C 30 in /  1017.2 hPa WNW 3 mph /  4.8 km/h 13 mph /  20.9 km/h 90 % 0 in /  0.0 mm
23:02 50.7 °F /  10.4 °C 48.2 °F /  9.0 °C 30 in /  1017.2 hPa WNW 8 mph /  12.9 km/h 13 mph /  20.9 km/h 91 % 0 in /  0.0 mm
23:07 50.7 °F /  10.4 °C 48.2 °F /  9.0 °C 30 in /  1017.2 hPa NNW 8 mph /  12.9 km/h 13 mph /  20.9 km/h 91 % 0 in /  0.0 mm
23:12 50.7 °F /  10.4 °C 48.2 °F /  9.0 °C 30 in /  1017.2 hPa NW 6 mph /  9.7 km/h 13 mph /  20.9 km/h 91 % 0 in /  0.0 mm
23:17 50.5 °F /  10.3 °C 48 °F /  8.9 °C 30 in /  1017.2 hPa NNW 2 mph /  3.2 km/h 13 mph /  20.9 km/h 91 % 0 in /  0.0 mm
23:22 50.5 °F /  10.3 °C 48 °F /  8.9 °C 30.1 in /  1017.5 hPa NNW 3 mph /  4.8 km/h 13 mph /  20.9 km/h 91 % 0 in /  0.0 mm
23:32 50.4 °F /  10.2 °C 47.8 °F /  8.8 °C 30.1 in /  1017.5 hPa NNW 3 mph /  4.8 km/h 8 mph /  12.9 km/h 91 % 0 in /  0.0 mm
23:37 50.4 °F /  10.2 °C 47.8 °F /  8.8 °C 30.1 in /  1017.5 hPa NNW 2 mph /  3.2 km/h 8 mph /  12.9 km/h 91 % 0 in /  0.0 mm
23:42 50.4 °F /  10.2 °C 47.8 °F /  8.8 °C 30.1 in /  1017.5 hPa NW 2 mph /  3.2 km/h 7 mph /  11.3 km/h 91 % 0 in /  0.0 mm
23:47 50.4 °F /  10.2 °C 47.8 °F /  8.8 °C 30.1 in /  1017.5 hPa WNW 1 mph /  1.6 km/h 7 mph /  11.3 km/h 91 % 0 in /  0.0 mm
23:52 50.2 °F /  10.1 °C 47.7 °F /  8.7 °C 30.1 in /  1017.8 hPa NNW 4 mph /  6.4 km/h 7 mph /  11.3 km/h 91 % 0 in /  0.0 mm
23:57 50.2 °F /  10.1 °C 48 °F /  8.9 °C 30.1 in /  1017.8 hPa NW 6 mph /  9.7 km/h 8 mph /  12.9 km/h 92 % 0 in /  0.0 mm
Meteo18
Compliments of Weather Underground - 4 mb

Script developed by  Jim McMurry - jmcmurry@mwt.net Adapted for the template by  Wim van der Kuil - Leuven-Template.eu

You find our weather info also at:

European Weather Network

Weather Underground

Equipment we use:

Weather-station
Davis Vue

Weather-program
Meteohub

Weather-server
Raspberry PI 2 B+

Provider
1 and 1

Davis Vue

Meteohub

Raspberry PI 2 B+

1 and 1